sensor_id;sensor_type;location;lat;lon;timestamp;pressure;altitude;pressure_sealevel;temperature;humidity
18988;BME280;5494;51.796;10.952;2023-04-01T00:00:53;97027.53;;;10.15;100.00
18988;BME280;5494;51.796;10.952;2023-04-01T00:03:22;97042.47;;;10.02;100.00
18988;BME280;5494;51.796;10.952;2023-04-01T00:05:51;97034.53;;;10.04;100.00
18988;BME280;5494;51.796;10.952;2023-04-01T00:08:19;97044.47;;;9.99;100.00
18988;BME280;5494;51.796;10.952;2023-04-01T00:10:47;97039.38;;;9.97;100.00
18988;BME280;5494;51.796;10.952;2023-04-01T00:13:17;97047.16;;;9.97;100.00
18988;BME280;5494;51.796;10.952;2023-04-01T00:15:45;97043.19;;;9.93;100.00
18988;BME280;5494;51.796;10.952;2023-04-01T00:18:13;97037.03;;;9.94;100.00
18988;BME280;5494;51.796;10.952;2023-04-01T00:20:44;97045.66;;;9.95;100.00
18988;BME280;5494;51.796;10.952;2023-04-01T00:23:13;97047.00;;;10.10;100.00
18988;BME280;5494;51.796;10.952;2023-04-01T00:25:42;97038.66;;;10.06;100.00
18988;BME280;5494;51.796;10.952;2023-04-01T00:28:10;97036.97;;;10.27;100.00
18988;BME280;5494;51.796;10.952;2023-04-01T00:30:39;97043.94;;;10.27;100.00
18988;BME280;5494;51.796;10.952;2023-04-01T00:33:07;97043.50;;;10.22;100.00
18988;BME280;5494;51.796;10.952;2023-04-01T00:35:35;97049.97;;;10.16;100.00
18988;BME280;5494;51.796;10.952;2023-04-01T00:38:05;97052.69;;;10.04;100.00
18988;BME280;5494;51.796;10.952;2023-04-01T00:40:36;97040.53;;;10.15;100.00
18988;BME280;5494;51.796;10.952;2023-04-01T00:43:12;97029.66;;;10.10;100.00
18988;BME280;5494;51.796;10.952;2023-04-01T00:45:44;97031.81;;;10.05;100.00
18988;BME280;5494;51.796;10.952;2023-04-01T00:48:17;97043.19;;;9.93;100.00
18988;BME280;5494;51.796;10.952;2023-04-01T00:50:52;97031.59;;;9.97;100.00
18988;BME280;5494;51.796;10.952;2023-04-01T00:53:23;97036.56;;;10.00;100.00
18988;BME280;5494;51.796;10.952;2023-04-01T00:55:59;97040.31;;;9.96;100.00
18988;BME280;5494;51.796;10.952;2023-04-01T00:58:33;97036.34;;;9.92;100.00
18988;BME280;5494;51.796;10.952;2023-04-01T01:01:06;97042.22;;;9.94;100.00
18988;BME280;5494;51.796;10.952;2023-04-01T01:03:36;97038.56;;;9.97;100.00
18988;BME280;5494;51.796;10.952;2023-04-01T01:06:11;97034.66;;;10.02;100.00
18988;BME280;5494;51.796;10.952;2023-04-01T01:09:10;97040.06;;;10.10;100.00
18988;BME280;5494;51.796;10.952;2023-04-01T01:11:44;97030.84;;;10.29;100.00
18988;BME280;5494;51.796;10.952;2023-04-01T01:14:34;97023.88;;;10.18;100.00
18988;BME280;5494;51.796;10.952;2023-04-01T01:17:13;97023.53;;;10.11;100.00
18988;BME280;5494;51.796;10.952;2023-04-01T01:20:18;97022.63;;;10.01;100.00
18988;BME280;5494;51.796;10.952;2023-04-01T01:23:29;97022.31;;;9.95;100.00
18988;BME280;5494;51.796;10.952;2023-04-01T01:26:30;97019.88;;;10.14;100.00
18988;BME280;5494;51.796;10.952;2023-04-01T01:29:22;97018.00;;;10.16;100.00
18988;BME280;5494;51.796;10.952;2023-04-01T01:32:01;97020.72;;;10.03;100.00
18988;BME280;5494;51.796;10.952;2023-04-01T01:34:36;97024.63;;;10.09;100.00
18988;BME280;5494;51.796;10.952;2023-04-01T01:37:13;97021.47;;;9.94;100.00
18988;BME280;5494;51.796;10.952;2023-04-01T01:39:46;97023.59;;;9.89;100.00
18988;BME280;5494;51.796;10.952;2023-04-01T01:42:20;97025.25;;;9.90;100.00
18988;BME280;5494;51.796;10.952;2023-04-01T01:44:50;97022.69;;;9.79;100.00
18988;BME280;5494;51.796;10.952;2023-04-01T01:47:22;97030.16;;;10.04;100.00
18988;BME280;5494;51.796;10.952;2023-04-01T01:49:52;97019.44;;;10.09;100.00
18988;BME280;5494;51.796;10.952;2023-04-01T01:52:24;97022.53;;;9.92;100.00
18988;BME280;5494;51.796;10.952;2023-04-01T01:54:55;97029.16;;;9.84;100.00
18988;BME280;5494;51.796;10.952;2023-04-01T01:57:31;97027.59;;;9.82;100.00
18988;BME280;5494;51.796;10.952;2023-04-01T02:00:08;97036.00;;;9.85;100.00
18988;BME280;5494;51.796;10.952;2023-04-01T02:02:44;97033.00;;;10.01;100.00
18988;BME280;5494;51.796;10.952;2023-04-01T02:05:19;97042.81;;;9.98;100.00
18988;BME280;5494;51.796;10.952;2023-04-01T02:07:55;97030.44;;;9.90;100.00
18988;BME280;5494;51.796;10.952;2023-04-01T02:10:34;97041.91;;;9.87;100.00
18988;BME280;5494;51.796;10.952;2023-04-01T02:13:13;97037.03;;;9.94;100.00
18988;BME280;5494;51.796;10.952;2023-04-01T02:15:47;97038.44;;;9.98;100.00
18988;BME280;5494;51.796;10.952;2023-04-01T02:18:18;97033.03;;;9.90;100.00
18988;BME280;5494;51.796;10.952;2023-04-01T02:20:48;97031.19;;;9.81;100.00
18988;BME280;5494;51.796;10.952;2023-04-01T02:23:18;97033.63;;;9.82;100.00
18988;BME280;5494;51.796;10.952;2023-04-01T02:25:47;97034.72;;;9.80;100.00
18988;BME280;5494;51.796;10.952;2023-04-01T02:28:18;97038.25;;;9.79;100.00
18988;BME280;5494;51.796;10.952;2023-04-01T02:30:49;97035.13;;;10.07;100.00
18988;BME280;5494;51.796;10.952;2023-04-01T02:33:19;97034.56;;;9.93;100.00
18988;BME280;5494;51.796;10.952;2023-04-01T02:35:49;97038.59;;;9.85;100.00
18988;BME280;5494;51.796;10.952;2023-04-01T02:38:19;97036.38;;;9.81;100.00
18988;BME280;5494;51.796;10.952;2023-04-01T02:40:51;97040.13;;;9.77;100.00
18988;BME280;5494;51.796;10.952;2023-04-01T02:43:19;97039.22;;;9.67;100.00
18988;BME280;5494;51.796;10.952;2023-04-01T02:45:47;97042.28;;;9.61;100.00
18988;BME280;5494;51.796;10.952;2023-04-01T02:48:15;97044.28;;;9.57;100.00
18988;BME280;5494;51.796;10.952;2023-04-01T02:50:43;97043.69;;;9.65;100.00
18988;BME280;5494;51.796;10.952;2023-04-01T02:53:11;97046.28;;;9.65;100.00
18988;BME280;5494;51.796;10.952;2023-04-01T02:55:41;97049.59;;;9.67;100.00
18988;BME280;5494;51.796;10.952;2023-04-01T02:58:09;97046.63;;;9.71;100.00
18988;BME280;5494;51.796;10.952;2023-04-01T03:00:37;97049.13;;;9.73;100.00
18988;BME280;5494;51.796;10.952;2023-04-01T03:03:07;97051.00;;;9.71;100.00
18988;BME280;5494;51.796;10.952;2023-04-01T03:05:35;97056.63;;;9.76;100.00
18988;BME280;5494;51.796;10.952;2023-04-01T03:08:04;97051.34;;;9.77;100.00
18988;BME280;5494;51.796;10.952;2023-04-01T03:10:33;97063.41;;;9.67;100.00
18988;BME280;5494;51.796;10.952;2023-04-01T03:13:02;97052.31;;;9.65;100.00
18988;BME280;5494;51.796;10.952;2023-04-01T03:15:30;97054.41;;;9.71;100.00
18988;BME280;5494;51.796;10.952;2023-04-01T03:17:59;97053.34;;;9.85;100.00
18988;BME280;5494;51.796;10.952;2023-04-01T03:20:27;97049.47;;;9.79;100.00
18988;BME280;5494;51.796;10.952;2023-04-01T03:22:54;97053.56;;;9.93;100.00
18988;BME280;5494;51.796;10.952;2023-04-01T03:25:23;97049.78;;;9.86;100.00
18988;BME280;5494;51.796;10.952;2023-04-01T03:27:51;97058.75;;;9.82;100.00
18988;BME280;5494;51.796;10.952;2023-04-01T03:30:20;97051.78;;;9.82;100.00
18988;BME280;5494;51.796;10.952;2023-04-01T03:32:50;97050.75;;;9.74;100.00
18988;BME280;5494;51.796;10.952;2023-04-01T03:35:18;97059.25;;;9.65;100.00
18988;BME280;5494;51.796;10.952;2023-04-01T03:37:46;97066.81;;;9.68;100.00
18988;BME280;5494;51.796;10.952;2023-04-01T03:40:14;97063.94;;;9.82;100.00
18988;BME280;5494;51.796;10.952;2023-04-01T03:42:42;97065.41;;;9.75;100.00
18988;BME280;5494;51.796;10.952;2023-04-01T03:45:11;97068.44;;;9.69;100.00
18988;BME280;5494;51.796;10.952;2023-04-01T03:47:40;97071.63;;;9.72;100.00
18988;BME280;5494;51.796;10.952;2023-04-01T03:50:10;97073.63;;;9.69;100.00
18988;BME280;5494;51.796;10.952;2023-04-01T03:52:39;97071.28;;;9.66;100.00
18988;BME280;5494;51.796;10.952;2023-04-01T03:55:07;97069.59;;;9.76;100.00
18988;BME280;5494;51.796;10.952;2023-04-01T03:57:38;97065.25;;;9.76;100.00
18988;BME280;5494;51.796;10.952;2023-04-01T04:00:15;97069.97;;;9.71;100.00
18988;BME280;5494;51.796;10.952;2023-04-01T04:02:47;97071.28;;;9.66;100.00
18988;BME280;5494;51.796;10.952;2023-04-01T04:05:20;97064.56;;;9.63;100.00
18988;BME280;5494;51.796;10.952;2023-04-01T04:07:48;97067.16;;;9.74;100.00
18988;BME280;5494;51.796;10.952;2023-04-01T04:10:17;97067.28;;;9.73;100.00
18988;BME280;5494;51.796;10.952;2023-04-01T04:12:45;97070.09;;;9.70;100.00
18988;BME280;5494;51.796;10.952;2023-04-01T04:15:14;97076.72;;;9.74;100.00
18988;BME280;5494;51.796;10.952;2023-04-01T04:17:43;97077.19;;;9.68;100.00
18988;BME280;5494;51.796;10.952;2023-04-01T04:20:15;97068.69;;;9.66;100.00
18988;BME280;5494;51.796;10.952;2023-04-01T04:22:43;97072.81;;;9.68;100.00
18988;BME280;5494;51.796;10.952;2023-04-01T04:25:11;97075.06;;;9.73;100.00
18988;BME280;5494;51.796;10.952;2023-04-01T04:27:39;97072.94;;;9.67;100.00
18988;BME280;5494;51.796;10.952;2023-04-01T04:30:11;97075.06;;;9.73;100.00
18988;BME280;5494;51.796;10.952;2023-04-01T04:32:39;97076.47;;;9.88;100.00
18988;BME280;5494;51.796;10.952;2023-04-01T04:35:10;97071.13;;;9.89;100.00
18988;BME280;5494;51.796;10.952;2023-04-01T04:37:40;97078.69;;;9.93;100.00
18988;BME280;5494;51.796;10.952;2023-04-01T04:40:09;97080.22;;;9.95;100.00
18988;BME280;5494;51.796;10.952;2023-04-01T04:42:37;97081.66;;;9.77;100.00
18988;BME280;5494;51.796;10.952;2023-04-01T04:45:10;97086.59;;;9.69;100.00
18988;BME280;5494;51.796;10.952;2023-04-01T04:47:45;97085.41;;;9.84;100.00
18988;BME280;5494;51.796;10.952;2023-04-01T04:50:13;97088.84;;;9.84;100.00
18988;BME280;5494;51.796;10.952;2023-04-01T04:52:42;97083.66;;;9.73;100.00
18988;BME280;5494;51.796;10.952;2023-04-01T04:55:10;97082.72;;;9.74;100.00
18988;BME280;5494;51.796;10.952;2023-04-01T04:57:44;97079.41;;;9.72;100.00
18988;BME280;5494;51.796;10.952;2023-04-01T05:00:12;97088.59;;;9.87;100.00
18988;BME280;5494;51.796;10.952;2023-04-01T05:02:57;97089.88;;;9.82;100.00
18988;BME280;5494;51.796;10.952;2023-04-01T05:05:25;97096.88;;;9.70;100.00
18988;BME280;5494;51.796;10.952;2023-04-01T05:07:54;97097.00;;;9.58;100.00
18988;BME280;5494;51.796;10.952;2023-04-01T05:10:22;97093.94;;;9.53;100.00
18988;BME280;5494;51.796;10.952;2023-04-01T05:12:53;97097.47;;;9.52;100.00
18988;BME280;5494;51.796;10.952;2023-04-01T05:15:22;97100.16;;;9.50;100.00
18988;BME280;5494;51.796;10.952;2023-04-01T05:17:51;97100.28;;;9.48;100.00
18988;BME280;5494;51.796;10.952;2023-04-01T05:20:19;97104.19;;;9.65;100.00
18988;BME280;5494;51.796;10.952;2023-04-01T05:22:47;97101.69;;;9.64;100.00
18988;BME280;5494;51.796;10.952;2023-04-01T05:25:16;97110.41;;;9.63;100.00
18988;BME280;5494;51.796;10.952;2023-04-01T05:27:44;97109.47;;;9.64;100.00
18988;BME280;5494;51.796;10.952;2023-04-01T05:30:12;97113.25;;;9.71;100.00
18988;BME280;5494;51.796;10.952;2023-04-01T05:33:02;97100.41;;;9.69;100.00
18988;BME280;5494;51.796;10.952;2023-04-01T05:35:30;97103.94;;;9.79;100.00
18988;BME280;5494;51.796;10.952;2023-04-01T05:37:59;97103.00;;;9.80;100.00
18988;BME280;5494;51.796;10.952;2023-04-01T05:40:29;97101.44;;;9.89;100.00
18988;BME280;5494;51.796;10.952;2023-04-01T05:42:58;97102.53;;;9.86;100.00
18988;BME280;5494;51.796;10.952;2023-04-01T05:45:26;97097.91;;;10.01;100.00
18988;BME280;5494;51.796;10.952;2023-04-01T05:48:17;97101.94;;;9.94;100.00
18988;BME280;5494;51.796;10.952;2023-04-01T05:50:45;97095.41;;;10.11;100.00
18988;BME280;5494;51.796;10.952;2023-04-01T05:53:13;97099.06;;;10.08;100.00
18988;BME280;5494;51.796;10.952;2023-04-01T05:55:44;97096.22;;;10.11;100.00
18988;BME280;5494;51.796;10.952;2023-04-01T05:58:13;97101.44;;;10.00;100.00
18988;BME280;5494;51.796;10.952;2023-04-01T06:00:44;97099.41;;;10.04;100.00
18988;BME280;5494;51.796;10.952;2023-04-01T06:03:15;97100.34;;;10.14;100.00
18988;BME280;5494;51.796;10.952;2023-04-01T06:05:44;97103.78;;;10.03;100.00
18988;BME280;5494;51.796;10.952;2023-04-01T06:08:16;97109.13;;;10.02;100.00
18988;BME280;5494;51.796;10.952;2023-04-01T06:11:07;97111.56;;;10.03;100.00
18988;BME280;5494;51.796;10.952;2023-04-01T06:14:03;97099.53;;;10.13;100.00
18988;BME280;5494;51.796;10.952;2023-04-01T06:16:54;97113.94;;;10.06;100.00
18988;BME280;5494;51.796;10.952;2023-04-01T06:19:37;97115.34;;;10.10;100.00
18988;BME280;5494;51.796;10.952;2023-04-01T06:22:38;97109.34;;;10.21;100.00
18988;BME280;5494;51.796;10.952;2023-04-01T06:25:40;97119.47;;;10.35;100.00
18988;BME280;5494;51.796;10.952;2023-04-01T06:28:49;97129.69;;;10.48;100.00
18988;BME280;5494;51.796;10.952;2023-04-01T06:31:51;97117.47;;;10.59;100.00
18988;BME280;5494;51.796;10.952;2023-04-01T06:34:45;97128.47;;;10.63;100.00
18988;BME280;5494;51.796;10.952;2023-04-01T06:37:39;97121.84;;;10.91;100.00
18988;BME280;5494;51.796;10.952;2023-04-01T06:40:40;97125.34;;;11.22;100.00
18988;BME280;5494;51.796;10.952;2023-04-01T06:43:21;97128.84;;;11.32;100.00
18988;BME280;5494;51.796;10.952;2023-04-01T06:46:30;97124.25;;;11.45;100.00
18988;BME280;5494;51.796;10.952;2023-04-01T06:49:41;97122.47;;;11.45;100.00
18988;BME280;5494;51.796;10.952;2023-04-01T06:52:44;97126.94;;;11.64;100.00
18988;BME280;5494;51.796;10.952;2023-04-01T06:55:38;97123.63;;;11.83;100.00
18988;BME280;5494;51.796;10.952;2023-04-01T06:58:22;97123.25;;;11.88;100.00
18988;BME280;5494;51.796;10.952;2023-04-01T07:00:56;97127.81;;;11.95;100.00
18988;BME280;5494;51.796;10.952;2023-04-01T07:03:34;97117.81;;;12.00;100.00
18988;BME280;5494;51.796;10.952;2023-04-01T07:06:16;97117.03;;;12.19;99.68
18988;BME280;5494;51.796;10.952;2023-04-01T07:08:53;97122.03;;;12.51;98.08
18988;BME280;5494;51.796;10.952;2023-04-01T07:11:29;97121.66;;;12.84;92.49
18988;BME280;5494;51.796;10.952;2023-04-01T07:14:32;97123.56;;;12.92;92.61
18988;BME280;5494;51.796;10.952;2023-04-01T07:17:09;97122.59;;;13.12;89.65
18988;BME280;5494;51.796;10.952;2023-04-01T07:19:45;97112.06;;;13.14;88.62
18988;BME280;5494;51.796;10.952;2023-04-01T07:22:26;97122.88;;;13.19;88.08
18988;BME280;5494;51.796;10.952;2023-04-01T07:25:12;97123.38;;;13.41;88.63
18988;BME280;5494;51.796;10.952;2023-04-01T07:27:43;97128.56;;;13.61;85.59
18988;BME280;5494;51.796;10.952;2023-04-01T07:30:16;97121.16;;;13.93;82.72
18988;BME280;5494;51.796;10.952;2023-04-01T07:32:48;97127.88;;;13.96;83.01
18988;BME280;5494;51.796;10.952;2023-04-01T07:35:27;97130.31;;;13.70;82.47
18988;BME280;5494;51.796;10.952;2023-04-01T07:38:12;97122.41;;;13.89;80.82
18988;BME280;5494;51.796;10.952;2023-04-01T07:40:50;97136.59;;;13.77;81.87
18988;BME280;5494;51.796;10.952;2023-04-01T07:43:43;97141.03;;;13.67;84.01
18988;BME280;5494;51.796;10.952;2023-04-01T07:46:41;97147.28;;;13.37;83.38
18988;BME280;5494;51.796;10.952;2023-04-01T07:49:22;97146.25;;;13.20;85.44
18988;BME280;5494;51.796;10.952;2023-04-01T07:52:00;97150.47;;;13.21;84.72
18988;BME280;5494;51.796;10.952;2023-04-01T07:54:44;97153.91;;;13.31;86.06
18988;BME280;5494;51.796;10.952;2023-04-01T07:57:22;97153.63;;;13.06;85.73
18988;BME280;5494;51.796;10.952;2023-04-01T08:00:02;97162.84;;;13.19;85.46
18988;BME280;5494;51.796;10.952;2023-04-01T08:03:15;97162.69;;;13.11;87.06
18988;BME280;5494;51.796;10.952;2023-04-01T08:05:55;97155.03;;;13.19;85.64
18988;BME280;5494;51.796;10.952;2023-04-01T08:08:44;97160.78;;;13.32;85.51
18988;BME280;5494;51.796;10.952;2023-04-01T08:11:56;97180.41;;;13.46;86.19
18988;BME280;5494;51.796;10.952;2023-04-01T08:15:12;97172.94;;;13.61;83.84
18988;BME280;5494;51.796;10.952;2023-04-01T08:18:26;97179.47;;;13.84;81.55
18988;BME280;5494;51.796;10.952;2023-04-01T08:20:59;97185.44;;;14.04;82.50
18988;BME280;5494;51.796;10.952;2023-04-01T08:23:33;97178.28;;;14.06;79.23
18988;BME280;5494;51.796;10.952;2023-04-01T08:26:11;97173.19;;;14.04;80.03
18988;BME280;5494;51.796;10.952;2023-04-01T08:28:50;97185.06;;;13.99;78.28
18988;BME280;5494;51.796;10.952;2023-04-01T08:31:30;97185.03;;;14.08;80.77
18988;BME280;5494;51.796;10.952;2023-04-01T08:34:04;97189.19;;;14.01;79.06
18988;BME280;5494;51.796;10.952;2023-04-01T08:36:38;97184.38;;;13.97;80.31
18988;BME280;5494;51.796;10.952;2023-04-01T08:39:18;97193.50;;;14.20;78.99
18988;BME280;5494;51.796;10.952;2023-04-01T08:42:28;97198.00;;;14.28;76.21
18988;BME280;5494;51.796;10.952;2023-04-01T08:45:22;97197.88;;;14.29;77.17
18988;BME280;5494;51.796;10.952;2023-04-01T08:48:51;97191.50;;;14.41;76.91
18988;BME280;5494;51.796;10.952;2023-04-01T08:55:36;97195.53;;;14.26;75.71
18988;BME280;5494;51.796;10.952;2023-04-01T08:58:45;97194.78;;;14.71;74.64
18988;BME280;5494;51.796;10.952;2023-04-01T09:01:55;97197.31;;;14.80;71.70
18988;BME280;5494;51.796;10.952;2023-04-01T09:05:12;97195.03;;;15.13;71.83
18988;BME280;5494;51.796;10.952;2023-04-01T09:08:01;97195.91;;;15.57;68.45
18988;BME280;5494;51.796;10.952;2023-04-01T09:11:08;97198.38;;;15.58;68.70
18988;BME280;5494;51.796;10.952;2023-04-01T09:14:22;97205.06;;;15.17;65.46
18988;BME280;5494;51.796;10.952;2023-04-01T09:17:43;97204.44;;;14.33;70.92
18988;BME280;5494;51.796;10.952;2023-04-01T09:20:33;97207.41;;;14.11;74.67
18988;BME280;5494;51.796;10.952;2023-04-01T09:23:43;97214.81;;;13.78;75.15
18988;BME280;5494;51.796;10.952;2023-04-01T09:26:38;97208.25;;;13.65;75.79
18988;BME280;5494;51.796;10.952;2023-04-01T09:29:27;97212.38;;;13.58;76.40
18988;BME280;5494;51.796;10.952;2023-04-01T09:32:26;97221.19;;;13.47;78.25
18988;BME280;5494;51.796;10.952;2023-04-01T09:35:23;97220.50;;;13.45;79.62
18988;BME280;5494;51.796;10.952;2023-04-01T09:38:22;97221.03;;;13.58;78.05
18988;BME280;5494;51.796;10.952;2023-04-01T09:40:57;97221.16;;;13.76;77.75
18988;BME280;5494;51.796;10.952;2023-04-01T09:44:02;97219.25;;;13.59;77.52
18988;BME280;5494;51.796;10.952;2023-04-01T09:47:00;97219.25;;;13.68;79.09
18988;BME280;5494;51.796;10.952;2023-04-01T09:50:10;97218.75;;;14.02;78.66
18988;BME280;5494;51.796;10.952;2023-04-01T09:52:49;97227.97;;;14.43;76.94
18988;BME280;5494;51.796;10.952;2023-04-01T09:55:56;97221.47;;;14.74;74.36
18988;BME280;5494;51.796;10.952;2023-04-01T09:59:37;97235.41;;;14.92;73.73
18988;BME280;5494;51.796;10.952;2023-04-01T10:03:02;97228.81;;;14.88;71.21
18988;BME280;5494;51.796;10.952;2023-04-01T10:06:16;97238.50;;;15.06;72.07
18988;BME280;5494;51.796;10.952;2023-04-01T10:09:50;97234.00;;;14.98;71.47
18988;BME280;5494;51.796;10.952;2023-04-01T10:12:55;97234.06;;;15.06;70.97
18988;BME280;5494;51.796;10.952;2023-04-01T10:16:14;97238.81;;;15.20;71.06
18988;BME280;5494;51.796;10.952;2023-04-01T10:19:03;97236.78;;;15.14;70.29
18988;BME280;5494;51.796;10.952;2023-04-01T10:21:59;97240.91;;;14.72;69.93
18988;BME280;5494;51.796;10.952;2023-04-01T10:24:58;97248.44;;;14.47;72.79
18988;BME280;5494;51.796;10.952;2023-04-01T10:35:10;97247.81;;;15.44;70.18
18988;BME280;5494;51.796;10.952;2023-04-01T10:38:33;97236.59;;;15.51;69.38
18988;BME280;5494;51.796;10.952;2023-04-01T10:42:05;97241.13;;;15.85;67.71
18988;BME280;5494;51.796;10.952;2023-04-01T10:45:43;97239.38;;;15.32;65.68
18988;BME280;5494;51.796;10.952;2023-04-01T10:48:48;97248.72;;;15.17;70.42
18988;BME280;5494;51.796;10.952;2023-04-01T10:51:59;97247.84;;;15.26;70.37
18988;BME280;5494;51.796;10.952;2023-04-01T10:55:36;97240.06;;;15.34;69.03
18988;BME280;5494;51.796;10.952;2023-04-01T10:58:59;97238.50;;;15.06;69.59
18988;BME280;5494;51.796;10.952;2023-04-01T11:06:03;97243.16;;;14.84;74.23
18988;BME280;5494;51.796;10.952;2023-04-01T11:09:34;97242.78;;;14.79;74.31
18988;BME280;5494;51.796;10.952;2023-04-01T11:13:01;97250.78;;;14.95;75.11
18988;BME280;5494;51.796;10.952;2023-04-01T11:16:05;97255.28;;;15.03;74.50
18988;BME280;5494;51.796;10.952;2023-04-01T11:19:29;97254.78;;;15.00;71.75
18988;BME280;5494;51.796;10.952;2023-04-01T11:22:29;97257.44;;;14.72;73.43
18988;BME280;5494;51.796;10.952;2023-04-01T11:25:25;97259.94;;;14.64;74.99
18988;BME280;5494;51.796;10.952;2023-04-01T11:28:55;97260.75;;;14.65;74.81
18988;BME280;5494;51.796;10.952;2023-04-01T11:31:47;97261.81;;;14.44;76.36
18988;BME280;5494;51.796;10.952;2023-04-01T11:34:43;97257.81;;;14.50;76.37
18988;BME280;5494;51.796;10.952;2023-04-01T11:37:32;97257.34;;;14.82;78.40
18988;BME280;5494;51.796;10.952;2023-04-01T11:40:31;97262.19;;;15.22;76.20
18988;BME280;5494;51.796;10.952;2023-04-01T11:43:37;97265.03;;;15.46;72.93
18988;BME280;5494;51.796;10.952;2023-04-01T11:46:54;97268.81;;;15.61;72.34
18988;BME280;5494;51.796;10.952;2023-04-01T11:49:39;97268.56;;;15.37;72.09
18988;BME280;5494;51.796;10.952;2023-04-01T11:52:44;97276.28;;;15.21;73.00
18988;BME280;5494;51.796;10.952;2023-04-01T11:55:32;97283.50;;;15.09;73.89
18988;BME280;5494;51.796;10.952;2023-04-01T11:58:51;97278.34;;;15.17;73.97
18988;BME280;5494;51.796;10.952;2023-04-01T12:01:43;97283.31;;;15.20;73.89
18988;BME280;5494;51.796;10.952;2023-04-01T12:04:41;97281.66;;;15.19;73.78
18988;BME280;5494;51.796;10.952;2023-04-01T12:07:27;97288.00;;;15.17;73.16
18988;BME280;5494;51.796;10.952;2023-04-01T12:10:16;97283.81;;;15.24;74.21
18988;BME280;5494;51.796;10.952;2023-04-01T12:12:56;97285.38;;;15.17;75.44
18988;BME280;5494;51.796;10.952;2023-04-01T12:15:43;97293.44;;;15.06;77.06
18988;BME280;5494;51.796;10.952;2023-04-01T12:18:26;97298.09;;;15.12;74.99
18988;BME280;5494;51.796;10.952;2023-04-01T12:21:14;97295.66;;;15.28;69.52
18988;BME280;5494;51.796;10.952;2023-04-01T12:24:10;97305.84;;;15.21;72.41
18988;BME280;5494;51.796;10.952;2023-04-01T12:26:56;97302.44;;;15.21;74.16
18988;BME280;5494;51.796;10.952;2023-04-01T12:29:53;97304.53;;;15.17;73.16
18988;BME280;5494;51.796;10.952;2023-04-01T12:32:34;97307.59;;;14.85;75.97
18988;BME280;5494;51.796;10.952;2023-04-01T12:35:20;97305.56;;;14.79;77.85
18988;BME280;5494;51.796;10.952;2023-04-01T12:38:14;97305.03;;;14.76;80.63
18988;BME280;5494;51.796;10.952;2023-04-01T12:41:09;97317.25;;;14.48;81.45
18988;BME280;5494;51.796;10.952;2023-04-01T12:44:10;97318.13;;;14.66;82.83
18988;BME280;5494;51.796;10.952;2023-04-01T12:47:19;97309.44;;;14.75;79.66
18988;BME280;5494;51.796;10.952;2023-04-01T12:50:17;97316.59;;;14.73;81.20
18988;BME280;5494;51.796;10.952;2023-04-01T12:53:12;97315.69;;;14.92;81.95
18988;BME280;5494;51.796;10.952;2023-04-01T12:55:45;97319.75;;;14.77;78.77
18988;BME280;5494;51.796;10.952;2023-04-01T12:58:52;97317.41;;;15.01;79.78
18988;BME280;5494;51.796;10.952;2023-04-01T13:01:59;97310.72;;;15.16;79.84
18988;BME280;5494;51.796;10.952;2023-04-01T13:05:15;97321.28;;;15.24;75.35
18988;BME280;5494;51.796;10.952;2023-04-01T13:07:59;97325.22;;;15.11;76.03
18988;BME280;5494;51.796;10.952;2023-04-01T13:10:48;97326.16;;;15.19;72.95
18988;BME280;5494;51.796;10.952;2023-04-01T13:13:49;97331.81;;;15.15;72.47
18988;BME280;5494;51.796;10.952;2023-04-01T13:16:26;97332.00;;;15.31;73.02
18988;BME280;5494;51.796;10.952;2023-04-01T13:19:04;97332.00;;;15.31;73.82
18988;BME280;5494;51.796;10.952;2023-04-01T13:21:50;97337.22;;;15.58;75.73
18988;BME280;5494;51.796;10.952;2023-04-01T13:24:45;97345.53;;;15.44;73.27
18988;BME280;5494;51.796;10.952;2023-04-01T13:27:21;97345.91;;;15.31;73.57
18988;BME280;5494;51.796;10.952;2023-04-01T13:30:08;97351.59;;;15.00;75.21
18988;BME280;5494;51.796;10.952;2023-04-01T13:32:47;97355.50;;;14.58;80.47
18988;BME280;5494;51.796;10.952;2023-04-01T13:35:37;97351.38;;;14.37;90.08
18988;BME280;5494;51.796;10.952;2023-04-01T13:38:29;97363.69;;;14.07;95.02
18988;BME280;5494;51.796;10.952;2023-04-01T13:41:06;97359.97;;;13.81;98.63
18988;BME280;5494;51.796;10.952;2023-04-01T13:43:42;97366.59;;;13.75;100.00
18988;BME280;5494;51.796;10.952;2023-04-01T13:46:44;97374.81;;;13.71;100.00
18988;BME280;5494;51.796;10.952;2023-04-01T13:49:45;97373.50;;;13.17;100.00
18988;BME280;5494;51.796;10.952;2023-04-01T13:52:37;97379.56;;;12.97;100.00
18988;BME280;5494;51.796;10.952;2023-04-01T13:55:25;97384.53;;;12.70;100.00
18988;BME280;5494;51.796;10.952;2023-04-01T13:58:23;97384.09;;;12.95;100.00
18988;BME280;5494;51.796;10.952;2023-04-01T14:01:10;97383.84;;;12.68;100.00
18988;BME280;5494;51.796;10.952;2023-04-01T14:03:57;97379.16;;;12.61;100.00
18988;BME280;5494;51.796;10.952;2023-04-01T14:06:39;97389.75;;;12.70;100.00
18988;BME280;5494;51.796;10.952;2023-04-01T14:09:50;97392.38;;;12.49;100.00
18988;BME280;5494;51.796;10.952;2023-04-01T14:12:30;97396.47;;;12.42;100.00
18988;BME280;5494;51.796;10.952;2023-04-01T14:15:31;97398.81;;;12.24;100.00
18988;BME280;5494;51.796;10.952;2023-04-01T14:18:33;97403.44;;;12.00;100.00
18988;BME280;5494;51.796;10.952;2023-04-01T14:21:29;97401.78;;;11.99;100.00
18988;BME280;5494;51.796;10.952;2023-04-01T14:24:36;97412.50;;;11.73;100.00
18988;BME280;5494;51.796;10.952;2023-04-01T14:27:37;97411.25;;;11.57;100.00
18988;BME280;5494;51.796;10.952;2023-04-01T14:30:41;97418.00;;;11.48;100.00
18988;BME280;5494;51.796;10.952;2023-04-01T14:33:28;97426.53;;;11.50;100.00
18988;BME280;5494;51.796;10.952;2023-04-01T14:36:26;97425.28;;;11.11;100.00
18988;BME280;5494;51.796;10.952;2023-04-01T14:39:15;97424.34;;;11.01;100.00
18988;BME280;5494;51.796;10.952;2023-04-01T14:42:09;97434.03;;;10.88;100.00
18988;BME280;5494;51.796;10.952;2023-04-01T14:47:59;97434.81;;;10.66;100.00